Kirkwood, CA (95646)

1:59 PM PDT on September 21, 2014 (GMT -0700)
North Upper Truckee | Change Station
CLOSE
Current Station
Personal Weather Station
Location: South Lake Tahoe, CA
Elevation: 6549 ft
Nearby Weather Stations

Elev 6549 ft 38.86 °N, 120.04 °W | Updated 2 seconds ago

Mostly Cloudy
Mostly Cloudy
54.6 °F
Feels Like 54.6 °F
N
3.0
Wind Variable Wind from SE
Gusts 3.0 mph

Today
High -- | Low -- °F
--% Chance of Precip.
Yesterday
High -- | Low -- °F
Precip. -- in
6:47 AM 6:58 PM
Waning Crescent, 5% visible
Pressure 30.07 in
Visibility 4.0 miles
Clouds Overcast 6000 ft
Dew Point 46 °F
Humidity 71%
Rainfall 0.00 in
Snow Depth 0 in , 0 in , 0 in
UV 2 out of 12
Pollen 5.20 out of 12
Ozone Good
Flu Activity Not available.
METAR KTVL 212053Z AUTO 20011KT 4SM -RA OVC060 15/07 A3022 RMK AO2 SLP182 P0001 60001 T01500072 51002

More Conditions Fewer Conditions

Pressure 30.07 in
Visibility 4.0 miles
Clouds Overcast 6000 ft
Dew Point 46 °F
Humidity 71%
Rainfall 0.00 in
Snow Depth 0 in , 0 in , 0 in
UV 2 out of 12
Pollen 5.20 out of 12
Ozone Good
Flu Activity Not available.
METAR KTVL 212053Z AUTO 20011KT 4SM -RA OVC060 15/07 A3022 RMK AO2 SLP182 P0001 60001 T01500072 51002

More Conditions Fewer Conditions

10-Day Weather Forecast

Almanac

Astronomy

Sep. 21, 2014 Rise Set
Actual Time 6:47 AM PDT 6:58 PM PDT
Civil Twilight 6:20 AM PDT 7:25 PM PDT
Nautical Twilight 5:49 AM PDT 7:56 PM PDT
Astronomical Twilight 5:17 AM PDT 8:27 PM PDT
Moon 4:26 AM PDT 5:36 PM PDT
Length of Visible Light 13h 04m
Length of Day
12h 11m
Tomorrow will be 2m 30s shorter.
Waning Crescent, 5% of the Moon is Illuminated
Today
Waning Crescent
Sep 24
New
Oct 1
First Quarter
Oct 8
Full
Oct 15
Last Quarter

Today's Extremes

State Highs State Lows

Community

WunderPhotos

Upload Photos

1,755,250 photos uploaded!

Nearby

Air Quality

  Air Quality AQ Index Pollutant
Yesterday Unhealthy
PM2.5
Yesterday Good
OZONE
Current Good
OZONE

Snow Depth

Station Depth Elevation
Leavitt Meadows 0 in 7200 ft
Fallen Leaf 0 in 6300 ft
Summit Meadow 0 in 9122 ft
Spratt Creek 0 in 6200 ft
Tahoe City Cross 0 in 6750 ft

Earthquake Activity

City Distance Mag. Time & Date
Gabbs, Nevada 107 miles 3.3 4:37 AM PDT
2014-09-19
Livermore, California 113 miles 2.6 3:37 AM PDT
2014-09-19
Minimum magnitude displayed is 2.5.

Coastal Water Temperatures

Place Temperature
No Stations Reporting

Nearby Weather Stations